createdAt,value
2023-04-08T00:00:28.923Z,4.41
2023-04-08T00:01:29.027Z,4.41
2023-04-08T00:02:29.095Z,4.37
2023-04-08T00:03:28.962Z,4.38
2023-04-08T00:04:29.029Z,4.37
2023-04-08T00:05:28.868Z,4.35
2023-04-08T00:06:28.867Z,4.42
2023-04-08T00:07:28.864Z,4.28
2023-04-08T00:08:28.848Z,4.30
2023-04-08T00:09:28.830Z,4.26
2023-04-08T00:10:28.933Z,4.24
2023-04-08T00:11:28.809Z,4.34
2023-04-08T00:12:28.792Z,4.28
2023-04-08T00:13:28.796Z,4.22
2023-04-08T00:14:28.777Z,4.26
2023-04-08T00:15:28.837Z,4.17
2023-04-08T00:16:28.788Z,4.17
2023-04-08T00:17:28.788Z,4.28
2023-04-08T00:18:28.760Z,4.17
2023-04-08T00:19:28.735Z,4.17
2023-04-08T00:20:28.795Z,4.23
2023-04-08T00:21:28.735Z,4.13
2023-04-08T00:22:28.704Z,4.12
2023-04-08T00:23:28.701Z,4.24
2023-04-08T00:24:28.679Z,4.12
2023-04-08T00:25:28.772Z,4.19
2023-04-08T00:26:28.727Z,4.12
2023-04-08T00:27:28.652Z,4.13
2023-04-08T00:28:28.650Z,4.08
2023-04-08T00:29:28.635Z,4.13
2023-04-08T00:30:28.621Z,4.16
2023-04-08T00:31:28.806Z,4.14
2023-04-08T00:32:28.652Z,4.10
2023-04-08T00:33:28.595Z,4.13
2023-04-08T00:34:28.587Z,4.12
2023-04-08T00:35:28.581Z,4.14
2023-04-08T00:36:28.622Z,4.08
2023-04-08T00:37:28.543Z,4.23
2023-04-08T00:38:28.558Z,4.19
2023-04-08T00:39:28.608Z,4.24
2023-04-08T00:40:28.587Z,4.20
2023-04-08T00:41:28.478Z,4.23
2023-04-08T00:42:28.497Z,4.14
2023-04-08T00:43:28.489Z,4.22
2023-04-08T00:44:28.557Z,4.14
2023-04-08T00:45:28.480Z,4.10
2023-04-08T00:46:28.466Z,4.13
2023-04-08T00:47:28.460Z,4.16
2023-04-08T00:48:28.453Z,4.13
2023-04-08T00:49:28.520Z,4.13
2023-04-08T00:50:28.420Z,4.14
2023-04-08T00:51:28.438Z,4.05
2023-04-08T00:52:28.418Z,3.99
2023-04-08T00:53:28.454Z,3.94
2023-04-08T00:54:28.363Z,3.98
2023-04-08T00:55:28.346Z,3.91
2023-04-08T00:56:28.343Z,3.96
2023-04-08T00:57:28.352Z,3.98
2023-04-08T00:58:28.424Z,3.88
2023-04-08T00:59:28.373Z,3.92
2023-04-08T01:00:28.304Z,3.88
2023-04-08T01:01:28.419Z,3.88
2023-04-08T01:02:28.518Z,3.81
2023-04-08T01:03:28.456Z,3.84
2023-04-08T01:04:28.392Z,3.84
2023-04-08T01:05:28.261Z,3.81
2023-04-08T01:06:28.294Z,3.94
2023-04-08T01:07:28.249Z,3.83
2023-04-08T01:08:28.273Z,3.94
2023-04-08T01:09:28.212Z,3.92
2023-04-08T01:10:28.192Z,3.92
2023-04-08T01:11:28.257Z,3.91
2023-04-08T01:12:28.210Z,3.95
2023-04-08T01:13:28.166Z,3.88
2023-04-08T01:14:28.220Z,3.92
2023-04-08T01:15:28.158Z,3.95
2023-04-08T01:16:28.281Z,3.98
2023-04-08T01:17:28.236Z,3.96
2023-04-08T01:18:28.130Z,3.96
2023-04-08T01:19:28.176Z,3.88
2023-04-08T01:20:28.100Z,3.96
2023-04-08T01:21:28.121Z,3.94
2023-04-08T01:22:28.077Z,4.02
2023-04-08T01:23:28.070Z,3.99
2023-04-08T01:24:28.115Z,3.99
2023-04-08T01:25:28.062Z,4.08
2023-04-08T01:26:28.129Z,4.10
2023-04-08T01:27:28.095Z,4.10
2023-04-08T01:28:28.034Z,4.04
2023-04-08T01:29:28.012Z,4.13
2023-04-08T01:30:28.008Z,4.13
2023-04-08T01:31:28.052Z,4.17
2023-04-08T01:32:28.042Z,4.13
2023-04-08T01:33:27.981Z,4.17
2023-04-08T01:34:27.960Z,4.13
2023-04-08T01:35:28.046Z,4.12
2023-04-08T01:36:27.965Z,4.13
2023-04-08T01:37:27.973Z,4.26
2023-04-08T01:38:27.996Z,4.22
2023-04-08T01:39:27.899Z,4.22
2023-04-08T01:40:27.910Z,4.20
2023-04-08T01:41:27.900Z,4.26
2023-04-08T01:42:27.929Z,4.30
2023-04-08T01:43:27.900Z,4.30
2023-04-08T01:44:27.907Z,4.28
2023-04-08T01:45:27.858Z,4.32
2023-04-08T01:46:27.876Z,4.23
2023-04-08T01:47:27.859Z,4.28
2023-04-08T01:48:27.885Z,4.26
2023-04-08T01:49:27.902Z,4.31
2023-04-08T01:50:27.778Z,4.30
2023-04-08T01:51:27.799Z,4.41
2023-04-08T01:52:27.773Z,4.31
2023-04-08T01:53:27.756Z,4.37
2023-04-08T01:54:27.826Z,4.42
2023-04-08T01:55:27.749Z,4.44
2023-04-08T01:56:27.733Z,4.48
2023-04-08T01:57:27.904Z,4.40
2023-04-08T01:58:27.729Z,4.35
2023-04-08T01:59:27.760Z,4.34
2023-04-08T02:00:27.687Z,4.44
2023-04-08T02:01:27.689Z,4.38
2023-04-08T02:02:27.809Z,4.37
2023-04-08T02:03:28.023Z,4.42
2023-04-08T02:04:27.824Z,4.41
2023-04-08T02:05:27.644Z,4.35
2023-04-08T02:06:27.631Z,4.41
2023-04-08T02:07:27.615Z,4.37
2023-04-08T02:08:27.613Z,4.45
2023-04-08T02:09:27.653Z,4.38
2023-04-08T02:10:27.578Z,4.48
2023-04-08T02:11:27.605Z,4.44
2023-04-08T02:12:27.561Z,4.48
2023-04-08T02:13:27.624Z,4.45
2023-04-08T02:14:27.564Z,4.37
2023-04-08T02:15:27.596Z,4.48
2023-04-08T02:16:27.552Z,4.41
2023-04-08T02:17:27.581Z,4.42
2023-04-08T02:18:27.560Z,4.42
2023-04-08T02:19:27.513Z,4.48
2023-04-08T02:20:27.550Z,4.49
2023-04-08T02:21:27.476Z,4.45
2023-04-08T02:22:27.464Z,4.52
2023-04-08T02:23:27.451Z,4.44
2023-04-08T02:24:27.433Z,4.45
2023-04-08T02:25:27.494Z,4.42
2023-04-08T02:26:27.416Z,4.55
2023-04-08T02:27:27.438Z,4.49
2023-04-08T02:28:27.476Z,4.49
2023-04-08T02:29:27.373Z,4.49
2023-04-08T02:30:27.445Z,4.49
2023-04-08T02:31:27.380Z,4.58
2023-04-08T02:32:27.428Z,4.52
2023-04-08T02:33:27.412Z,4.56
2023-04-08T02:34:27.351Z,4.50
2023-04-08T02:35:27.411Z,4.59
2023-04-08T02:36:27.311Z,4.53
2023-04-08T02:37:27.333Z,4.58
2023-04-08T02:38:27.289Z,4.60
2023-04-08T02:39:27.279Z,4.59
2023-04-08T02:40:27.335Z,4.62
2023-04-08T02:41:27.250Z,4.56
2023-04-08T02:42:27.254Z,4.58
2023-04-08T02:43:27.279Z,4.60
2023-04-08T02:44:27.264Z,4.62
2023-04-08T02:45:27.237Z,4.56
2023-04-08T02:46:27.291Z,4.62
2023-04-08T02:47:27.231Z,4.67
2023-04-08T02:48:27.190Z,4.68
2023-04-08T02:49:27.194Z,4.75
2023-04-08T02:50:27.174Z,4.70
2023-04-08T02:51:27.210Z,4.68
2023-04-08T02:52:27.144Z,4.67
2023-04-08T02:53:27.158Z,4.63
2023-04-08T02:54:27.118Z,4.70
2023-04-08T02:55:27.183Z,4.67
2023-04-08T02:56:27.157Z,4.68
2023-04-08T02:57:27.107Z,4.71
2023-04-08T02:58:27.080Z,4.71
2023-04-08T02:59:27.075Z,4.74
2023-04-08T03:00:27.120Z,4.63
2023-04-08T03:01:27.208Z,4.67
2023-04-08T03:02:27.112Z,4.75
2023-04-08T03:03:27.142Z,4.77
2023-04-08T03:04:27.024Z,4.82
2023-04-08T03:05:27.067Z,4.84
2023-04-08T03:06:27.034Z,4.87
2023-04-08T03:07:26.994Z,4.78
2023-04-08T03:08:27.047Z,4.84
2023-04-08T03:09:26.993Z,4.82
2023-04-08T03:10:27.020Z,4.77
2023-04-08T03:11:26.951Z,4.82
2023-04-08T03:12:26.942Z,4.82
2023-04-08T03:13:26.987Z,4.89
2023-04-08T03:14:26.916Z,4.74
2023-04-08T03:15:26.958Z,4.84
2023-04-08T03:16:26.937Z,4.82
2023-04-08T03:17:26.893Z,4.87
2023-04-08T03:18:26.938Z,4.84
2023-04-08T03:19:26.866Z,4.82
2023-04-08T03:20:26.874Z,4.93
2023-04-08T03:21:26.844Z,4.84
2023-04-08T03:22:26.820Z,4.84
2023-04-08T03:23:26.877Z,4.96
2023-04-08T03:24:26.816Z,4.92
2023-04-08T03:25:26.884Z,4.82
2023-04-08T03:26:26.787Z,4.87
2023-04-08T03:27:26.777Z,4.84
2023-04-08T03:28:26.761Z,4.78
2023-04-08T03:29:26.756Z,4.82
2023-04-08T03:30:26.755Z,4.80
2023-04-08T03:31:26.828Z,4.84
2023-04-08T03:32:26.746Z,4.84
2023-04-08T03:33:26.715Z,4.86
2023-04-08T03:34:26.699Z,4.87
2023-04-08T03:35:26.777Z,4.94
2023-04-08T03:36:26.709Z,4.94
2023-04-08T03:37:26.817Z,4.92
2023-04-08T03:38:26.665Z,4.92
2023-04-08T03:39:26.650Z,4.96
2023-04-08T03:40:26.632Z,4.93
2023-04-08T03:41:26.687Z,4.92
2023-04-08T03:42:26.700Z,4.90
2023-04-08T03:43:26.646Z,5.04
2023-04-08T03:44:26.597Z,4.97
2023-04-08T03:45:26.580Z,4.94
2023-04-08T03:46:26.665Z,4.99
2023-04-08T03:47:26.664Z,4.97
2023-04-08T03:48:26.556Z,4.97
2023-04-08T03:49:26.664Z,5.00
2023-04-08T03:50:26.598Z,4.94
2023-04-08T03:51:26.512Z,4.94
2023-04-08T03:52:26.519Z,4.94
2023-04-08T03:53:26.576Z,4.96
2023-04-08T03:54:26.499Z,5.04
2023-04-08T03:55:26.487Z,4.97
2023-04-08T03:56:26.529Z,4.97
2023-04-08T03:57:26.471Z,4.97
2023-04-08T03:58:26.967Z,5.05
2023-04-08T03:59:26.453Z,4.97
2023-04-08T04:00:26.434Z,4.97
2023-04-08T04:01:26.425Z,5.00
2023-04-08T04:02:26.566Z,5.02
2023-04-08T04:03:26.626Z,4.97
2023-04-08T04:04:26.475Z,5.00
2023-04-08T04:05:26.389Z,5.00
2023-04-08T04:06:26.438Z,4.97
2023-04-08T04:07:26.340Z,4.97
2023-04-08T04:08:26.343Z,4.94
2023-04-08T04:09:26.327Z,5.05
2023-04-08T04:10:26.332Z,4.97
2023-04-08T04:11:26.416Z,4.97
2023-04-08T04:12:26.329Z,4.89
2023-04-08T04:13:26.303Z,4.92
2023-04-08T04:14:26.362Z,4.99
2023-04-08T04:15:26.294Z,4.96
2023-04-08T04:16:26.348Z,5.07
2023-04-08T04:17:26.284Z,4.99
2023-04-08T04:18:26.250Z,5.02
2023-04-08T04:19:26.227Z,5.00
2023-04-08T04:20:26.241Z,4.94
2023-04-08T04:21:26.276Z,5.04
2023-04-08T04:22:26.185Z,4.99
2023-04-08T04:23:26.210Z,5.04
2023-04-08T04:24:26.240Z,4.99
2023-04-08T04:25:26.166Z,4.97
2023-04-08T04:26:26.155Z,4.94
2023-04-08T04:27:26.153Z,4.94
2023-04-08T04:28:26.128Z,4.99
2023-04-08T04:29:26.232Z,4.96
2023-04-08T04:30:26.130Z,5.00
2023-04-08T04:31:26.294Z,5.08
2023-04-08T04:32:26.180Z,5.02
2023-04-08T04:33:26.093Z,5.00
2023-04-08T04:34:26.081Z,4.99
2023-04-08T04:35:26.108Z,4.97
2023-04-08T04:36:26.044Z,4.97
2023-04-08T04:37:26.099Z,5.08
2023-04-08T04:38:26.111Z,5.00
2023-04-08T04:39:26.050Z,4.97
2023-04-08T04:40:26.024Z,5.07
2023-04-08T04:41:26.010Z,5.05
2023-04-08T04:42:26.091Z,5.08
2023-04-08T04:43:25.968Z,5.12
2023-04-08T04:44:25.987Z,5.05
2023-04-08T04:45:26.040Z,5.12
2023-04-08T04:46:25.980Z,5.10
2023-04-08T04:47:25.996Z,5.12
2023-04-08T04:48:25.939Z,5.08
2023-04-08T04:49:25.927Z,5.04
2023-04-08T04:50:25.990Z,5.11
2023-04-08T04:51:25.875Z,5.04
2023-04-08T04:52:25.891Z,5.12
2023-04-08T04:53:25.874Z,5.11
2023-04-08T04:54:25.871Z,5.05
2023-04-08T04:55:25.915Z,5.10
2023-04-08T04:56:25.841Z,5.08
2023-04-08T04:57:25.831Z,5.04
2023-04-08T04:58:25.825Z,5.07
2023-04-08T04:59:25.810Z,5.08
2023-04-08T05:00:25.872Z,5.08
2023-04-08T05:01:25.875Z,5.12
2023-04-08T05:02:26.018Z,5.15
2023-04-08T05:03:25.961Z,5.11
2023-04-08T05:04:25.753Z,5.05
2023-04-08T05:05:25.860Z,5.11
2023-04-08T05:06:25.737Z,5.05
2023-04-08T05:07:25.718Z,5.08
2023-04-08T05:08:27.804Z,5.11
2023-04-08T05:09:25.743Z,5.14
2023-04-08T05:10:25.698Z,5.12
2023-04-08T05:11:25.759Z,5.15
2023-04-08T05:12:25.669Z,5.17
2023-04-08T05:13:25.696Z,5.15
2023-04-08T05:14:25.645Z,5.21
2023-04-08T05:15:25.664Z,5.23
2023-04-08T05:16:25.754Z,5.20
2023-04-08T05:17:25.650Z,5.21
2023-04-08T05:18:25.637Z,5.25
2023-04-08T05:19:25.610Z,5.25
2023-04-08T05:20:25.599Z,5.23
2023-04-08T05:21:25.673Z,5.25
2023-04-08T05:22:25.578Z,5.30
2023-04-08T05:23:25.580Z,5.32
2023-04-08T05:24:25.585Z,5.41
2023-04-08T05:25:25.551Z,5.41
2023-04-08T05:26:25.598Z,5.38
2023-04-08T05:27:25.569Z,5.41
2023-04-08T05:28:26.565Z,5.43
2023-04-08T05:29:25.508Z,5.43
2023-04-08T05:30:25.485Z,5.57
2023-04-08T05:31:25.536Z,5.56
2023-04-08T05:32:25.564Z,5.53
2023-04-08T05:33:25.473Z,5.50
2023-04-08T05:34:25.459Z,5.66
2023-04-08T05:35:25.476Z,5.62
2023-04-08T05:36:25.419Z,5.59
2023-04-08T05:37:25.493Z,5.68
2023-04-08T05:38:25.566Z,5.68
2023-04-08T05:39:25.401Z,5.62
2023-04-08T05:40:25.387Z,5.64
2023-04-08T05:41:25.433Z,5.65
2023-04-08T05:42:25.419Z,5.66
2023-04-08T05:43:25.369Z,5.68
2023-04-08T05:44:25.357Z,5.64
2023-04-08T05:45:25.354Z,5.68
2023-04-08T05:46:25.353Z,5.59
2023-04-08T05:47:25.498Z,5.54
2023-04-08T05:48:25.323Z,5.56
2023-04-08T05:49:25.364Z,5.56
2023-04-08T05:50:25.284Z,5.51
2023-04-08T05:51:25.333Z,5.59
2023-04-08T05:52:46.263Z,5.53
2023-04-08T05:53:25.300Z,5.54
2023-04-08T05:54:25.257Z,5.53
2023-04-08T05:55:25.225Z,5.51
2023-04-08T05:56:25.290Z,5.53
2023-04-08T05:57:25.212Z,5.53
2023-04-08T05:58:25.212Z,5.56
2023-04-08T05:59:25.186Z,5.50
2023-04-08T06:00:25.167Z,5.56
2023-04-08T06:01:25.212Z,5.57
2023-04-08T06:02:25.315Z,5.54
2023-04-08T06:03:25.337Z,5.61
2023-04-08T06:04:25.478Z,5.66
2023-04-08T06:05:25.142Z,5.59
2023-04-08T06:06:25.105Z,5.62
2023-04-08T06:07:25.162Z,5.65
2023-04-08T06:08:25.156Z,5.68
2023-04-08T06:09:25.092Z,5.61
2023-04-08T06:10:25.069Z,5.65
2023-04-08T06:11:25.124Z,5.71
2023-04-08T06:12:25.041Z,5.65
2023-04-08T06:13:25.109Z,5.76
2023-04-08T06:14:25.013Z,5.68
2023-04-08T06:15:25.154Z,5.66
2023-04-08T06:16:25.096Z,5.68
2023-04-08T06:17:25.045Z,5.73
2023-04-08T06:18:25.041Z,5.73
2023-04-08T06:19:24.977Z,5.83
2023-04-08T06:20:24.959Z,5.84
2023-04-08T06:21:25.003Z,5.89
2023-04-08T06:22:24.948Z,5.84
2023-04-08T06:23:24.930Z,5.89
2023-04-08T06:24:24.930Z,5.87
2023-04-08T06:25:24.924Z,5.83
2023-04-08T06:26:24.957Z,5.79
2023-04-08T06:27:24.896Z,5.84
2023-04-08T06:28:24.885Z,5.84
2023-04-08T06:29:24.944Z,5.83
2023-04-08T06:30:24.852Z,5.84
2023-04-08T06:31:24.883Z,5.84
2023-04-08T06:32:24.895Z,5.86
2023-04-08T06:33:24.813Z,5.83
2023-04-08T06:34:24.803Z,5.75
2023-04-08T06:35:24.847Z,5.73
2023-04-08T06:36:24.789Z,5.75
2023-04-08T06:37:24.915Z,5.75
2023-04-08T06:38:24.840Z,5.73
2023-04-08T06:39:24.753Z,5.72
2023-04-08T06:40:24.757Z,5.73
2023-04-08T06:41:24.764Z,5.73
2023-04-08T06:42:24.727Z,5.76
2023-04-08T06:43:24.797Z,5.73
2023-04-08T06:44:24.715Z,5.76
2023-04-08T06:45:24.744Z,5.79
2023-04-08T06:46:24.771Z,5.75
2023-04-08T06:47:24.766Z,5.79
2023-04-08T06:48:24.659Z,5.80
2023-04-08T06:49:24.667Z,5.80
2023-04-08T06:50:24.653Z,5.73
2023-04-08T06:51:24.647Z,5.73
2023-04-08T06:52:24.628Z,5.84
2023-04-08T06:53:24.920Z,5.80
2023-04-08T06:54:24.602Z,5.76
2023-04-08T06:55:24.625Z,5.76
2023-04-08T06:56:24.589Z,5.83
2023-04-08T06:57:24.567Z,5.82
2023-04-08T06:58:24.613Z,5.84
2023-04-08T06:59:24.661Z,5.84
2023-04-08T07:00:24.541Z,5.76
2023-04-08T07:01:24.560Z,5.83
2023-04-08T07:02:24.677Z,5.76
2023-04-08T07:03:24.644Z,5.82
2023-04-08T07:04:24.566Z,5.75
2023-04-08T07:05:24.493Z,5.82
2023-04-08T07:06:24.479Z,5.84
2023-04-08T07:07:24.466Z,5.82
2023-04-08T07:08:24.528Z,5.97
2023-04-08T07:09:24.469Z,5.97
2023-04-08T07:10:24.432Z,6.01
2023-04-08T07:11:24.435Z,5.94
2023-04-08T07:12:24.392Z,5.97
2023-04-08T07:13:24.480Z,5.86
2023-04-08T07:14:24.379Z,5.97
2023-04-08T07:15:24.383Z,5.93
2023-04-08T07:16:24.483Z,5.97
2023-04-08T07:17:24.378Z,5.91
2023-04-08T07:18:24.420Z,5.91
2023-04-08T07:19:24.558Z,5.90
2023-04-08T07:20:24.321Z,5.90
2023-04-08T07:21:24.324Z,6.02
2023-04-08T07:22:24.363Z,5.93
2023-04-08T07:23:24.381Z,6.04
2023-04-08T07:24:24.297Z,6.08
2023-04-08T07:25:24.299Z,6.01
2023-04-08T07:26:24.270Z,6.01
2023-04-08T07:27:24.325Z,6.07
2023-04-08T07:28:24.308Z,6.07
2023-04-08T07:29:24.232Z,6.04
2023-04-08T07:30:24.360Z,6.02
2023-04-08T07:31:24.313Z,6.05
2023-04-08T07:32:24.300Z,6.11
2023-04-08T07:33:24.195Z,6.16
2023-04-08T07:34:24.186Z,6.14
2023-04-08T07:35:24.350Z,6.12
2023-04-08T07:36:24.191Z,6.19
2023-04-08T07:37:24.202Z,6.22
2023-04-08T07:38:24.230Z,6.31
2023-04-08T07:39:24.205Z,6.31
2023-04-08T07:40:24.141Z,6.28
2023-04-08T07:41:24.141Z,6.36
2023-04-08T07:42:24.120Z,6.41
2023-04-08T07:43:24.112Z,6.38
2023-04-08T07:44:24.169Z,6.41
2023-04-08T07:45:24.080Z,6.30
2023-04-08T07:46:24.114Z,6.39
2023-04-08T07:47:24.077Z,6.45
2023-04-08T07:48:24.051Z,6.52
2023-04-08T07:49:24.093Z,6.51
2023-04-08T07:50:24.120Z,6.62
2023-04-08T07:51:24.016Z,6.64
2023-04-08T07:52:24.017Z,6.64
2023-04-08T07:53:25.020Z,6.66
2023-04-08T07:54:24.042Z,6.64
2023-04-08T07:55:23.975Z,6.69
2023-04-08T07:56:23.998Z,6.70
2023-04-08T07:57:23.960Z,6.70
2023-04-08T07:58:23.943Z,6.56
2023-04-08T07:59:24.033Z,6.59
2023-04-08T08:00:23.909Z,6.59
2023-04-08T08:01:23.898Z,6.66
2023-04-08T08:02:23.953Z,6.66
2023-04-08T08:03:23.941Z,6.66
2023-04-08T08:04:24.082Z,6.74
2023-04-08T08:05:23.994Z,6.78
2023-04-08T08:06:23.849Z,6.77
2023-04-08T08:07:23.852Z,6.87
2023-04-08T08:08:23.832Z,6.84
2023-04-08T08:09:23.886Z,6.96
2023-04-08T08:10:23.811Z,6.99
2023-04-08T08:11:23.821Z,6.95
2023-04-08T08:12:23.793Z,6.97
2023-04-08T08:13:23.808Z,7.02
2023-04-08T08:14:23.836Z,6.99
2023-04-08T08:15:23.757Z,7.00
2023-04-08T08:16:23.811Z,6.88
2023-04-08T08:17:24.674Z,6.97
2023-04-08T08:18:23.740Z,6.88
2023-04-08T08:19:23.720Z,6.87
2023-04-08T08:20:23.722Z,6.89
2023-04-08T08:21:23.704Z,6.88
2023-04-08T08:22:23.756Z,6.96
2023-04-08T08:23:23.717Z,6.95
2023-04-08T08:24:23.669Z,6.97
2023-04-08T08:25:25.800Z,6.96
2023-04-08T08:26:23.650Z,6.96
2023-04-08T08:27:23.636Z,7.02
2023-04-08T08:28:23.683Z,6.89
2023-04-08T08:29:23.633Z,7.00
2023-04-08T08:30:23.637Z,7.00
2023-04-08T08:31:23.690Z,6.93
2023-04-08T08:32:23.619Z,7.00
2023-04-08T08:33:23.634Z,6.89
2023-04-08T08:34:23.563Z,7.00
2023-04-08T08:35:23.553Z,7.05
2023-04-08T08:36:23.545Z,6.88
2023-04-08T08:37:23.533Z,6.96
2023-04-08T08:38:23.525Z,6.88
2023-04-08T08:39:23.576Z,6.96
2023-04-08T08:40:23.605Z,6.88
2023-04-08T08:41:23.491Z,7.00
2023-04-08T08:42:23.469Z,7.02
2023-04-08T08:43:23.479Z,7.07
2023-04-08T08:44:23.534Z,7.06
2023-04-08T08:45:23.521Z,7.13
2023-04-08T08:46:23.448Z,7.13
2023-04-08T08:47:23.462Z,7.15
2023-04-08T08:48:23.444Z,7.10
2023-04-08T08:49:23.483Z,7.14
2023-04-08T08:50:23.392Z,7.18
2023-04-08T08:51:23.404Z,7.15
2023-04-08T08:52:23.391Z,7.18
2023-04-08T08:53:23.396Z,7.31
2023-04-08T08:54:23.427Z,7.24
2023-04-08T08:56:23.331Z,7.38
2023-04-08T08:57:23.324Z,7.35
2023-04-08T08:58:23.319Z,7.25
2023-04-08T08:59:23.311Z,7.24
2023-04-08T09:00:23.296Z,7.31
2023-04-08T09:01:23.385Z,7.31
2023-04-08T09:02:23.397Z,7.36
2023-04-08T09:03:23.624Z,7.25
2023-04-08T09:04:23.449Z,7.33
2023-04-08T09:05:23.371Z,7.32
2023-04-08T09:06:23.245Z,7.32
2023-04-08T09:07:23.241Z,7.28
2023-04-08T09:08:23.282Z,7.32
2023-04-08T09:09:23.194Z,7.32
2023-04-08T09:10:23.183Z,7.25
2023-04-08T09:11:23.184Z,7.40
2023-04-08T09:12:23.175Z,7.29
2023-04-08T09:13:23.212Z,7.42
2023-04-08T09:14:23.162Z,7.42
2023-04-08T09:15:23.128Z,7.47
2023-04-08T09:16:23.186Z,7.50
2023-04-08T09:17:23.123Z,7.56
2023-04-08T09:18:23.244Z,7.42
2023-04-08T09:19:23.104Z,7.47
2023-04-08T09:20:23.090Z,7.43
2023-04-08T09:21:23.083Z,7.51
2023-04-08T09:22:23.087Z,7.43
2023-04-08T09:23:23.059Z,7.45
2023-04-08T09:24:23.104Z,7.50
2023-04-08T09:25:23.038Z,7.48
2023-04-08T09:26:23.112Z,7.58
2023-04-08T09:27:23.023Z,7.53
2023-04-08T09:28:23.011Z,7.56
2023-04-08T09:29:26.310Z,7.58
2023-04-08T09:30:22.984Z,7.72
2023-04-08T09:31:23.276Z,7.73
2023-04-08T09:32:22.960Z,7.70
2023-04-08T09:33:22.966Z,7.75
2023-04-08T09:34:22.988Z,7.75
2023-04-08T09:35:23.099Z,7.69
2023-04-08T09:36:22.930Z,7.75
2023-04-08T09:37:22.900Z,7.70
2023-04-08T09:38:22.957Z,7.82
2023-04-08T09:39:22.992Z,7.91
2023-04-08T09:40:22.895Z,7.94
2023-04-08T09:41:22.911Z,7.98
2023-04-08T09:42:22.863Z,8.06
2023-04-08T09:43:22.880Z,8.05
2023-04-08T09:44:22.891Z,7.91
2023-04-08T09:45:22.925Z,8.03
2023-04-08T09:46:22.897Z,8.03
2023-04-08T09:47:22.837Z,8.09
2023-04-08T09:48:22.915Z,8.13
2023-04-08T09:49:22.864Z,8.20
2023-04-08T09:50:22.774Z,8.27
2023-04-08T09:51:22.860Z,8.18
2023-04-08T09:52:22.745Z,8.15
2023-04-08T09:53:23.384Z,8.09
2023-04-08T09:54:22.905Z,8.01
2023-04-08T09:55:22.757Z,8.01
2023-04-08T09:56:22.718Z,8.00
2023-04-08T09:57:22.702Z,8.03
2023-04-08T09:58:22.767Z,8.09
2023-04-08T09:59:22.759Z,8.00
2023-04-08T10:00:22.680Z,8.05
2023-04-08T10:01:23.653Z,7.87
2023-04-08T10:02:22.664Z,7.90
2023-04-08T10:03:22.692Z,7.83
2023-04-08T10:04:22.949Z,7.88
2023-04-08T10:05:22.638Z,7.93
2023-04-08T10:06:22.670Z,7.95
2023-04-08T10:07:22.643Z,8.00
2023-04-08T10:08:22.580Z,8.12
2023-04-08T10:09:22.654Z,8.16
2023-04-08T10:10:22.577Z,8.15
2023-04-08T10:11:22.560Z,8.20
2023-04-08T10:12:22.555Z,8.23
2023-04-08T10:13:22.548Z,8.15
2023-04-08T10:14:22.604Z,8.10
2023-04-08T10:15:22.735Z,8.27
2023-04-08T10:16:22.622Z,8.26
2023-04-08T10:17:22.499Z,8.18
2023-04-08T10:18:22.495Z,8.18
2023-04-08T10:19:22.712Z,8.28
2023-04-08T10:20:22.513Z,8.20
2023-04-08T10:21:22.483Z,8.15
2023-04-08T10:22:22.439Z,8.15
2023-04-08T10:23:22.735Z,8.24
2023-04-08T10:24:22.468Z,8.28
2023-04-08T10:25:22.674Z,8.18
2023-04-08T10:26:22.766Z,8.15
2023-04-08T10:27:22.372Z,8.23
2023-04-08T10:28:22.382Z,8.15
2023-04-08T10:29:22.354Z,8.20
2023-04-08T10:30:22.413Z,8.20
2023-04-08T10:31:22.441Z,8.15
2023-04-08T10:32:22.323Z,8.15
2023-04-08T10:33:22.324Z,8.16
2023-04-08T10:34:22.355Z,8.12
2023-04-08T10:35:22.373Z,8.12
2023-04-08T10:36:22.285Z,8.16
2023-04-08T10:37:22.292Z,8.13
2023-04-08T10:38:22.268Z,8.10
2023-04-08T10:39:22.261Z,8.09
2023-04-08T10:40:22.314Z,8.08
2023-04-08T10:41:22.259Z,8.10
2023-04-08T10:42:22.219Z,8.10
2023-04-08T10:43:22.221Z,8.09
2023-04-08T10:44:22.204Z,8.10
2023-04-08T10:45:22.252Z,8.15
2023-04-08T10:46:22.179Z,8.08
2023-04-08T10:47:22.210Z,8.09
2023-04-08T10:48:22.182Z,8.01
2023-04-08T10:49:22.199Z,8.03
2023-04-08T10:50:22.238Z,8.12
2023-04-08T10:51:22.131Z,8.12
2023-04-08T10:52:22.788Z,8.10
2023-04-08T10:53:22.115Z,8.23
2023-04-08T10:54:22.102Z,8.20
2023-04-08T10:55:22.082Z,8.18
2023-04-08T10:56:22.130Z,8.26
2023-04-08T10:57:22.157Z,8.23
2023-04-08T10:58:22.051Z,8.23
2023-04-08T10:59:22.057Z,8.15
2023-04-08T11:00:22.116Z,8.27
2023-04-08T11:01:22.287Z,8.27
2023-04-08T11:02:22.160Z,8.33
2023-04-08T11:03:22.129Z,8.31
2023-04-08T11:04:22.150Z,8.30
2023-04-08T11:05:22.137Z,8.30
2023-04-08T11:06:22.078Z,8.37
2023-04-08T11:07:21.980Z,8.34
2023-04-08T11:08:21.943Z,8.33
2023-04-08T11:09:22.023Z,8.44
2023-04-08T11:10:21.953Z,8.46
2023-04-08T11:11:21.991Z,8.49
2023-04-08T11:12:21.910Z,8.49
2023-04-08T11:13:21.887Z,8.53
2023-04-08T11:14:22.890Z,8.52
2023-04-08T11:15:21.937Z,8.55
2023-04-08T11:16:22.078Z,8.51
2023-04-08T11:17:21.861Z,8.58
2023-04-08T11:18:21.853Z,8.61
2023-04-08T11:19:21.853Z,8.64
2023-04-08T11:20:21.868Z,8.66
2023-04-08T11:21:22.427Z,8.66
2023-04-08T11:22:22.043Z,8.67
2023-04-08T11:23:21.843Z,8.69
2023-04-08T11:24:21.901Z,8.58
2023-04-08T11:25:21.784Z,8.63
2023-04-08T11:26:21.775Z,8.64
2023-04-08T11:27:21.753Z,8.61
2023-04-08T11:28:22.611Z,8.69
2023-04-08T11:29:22.071Z,8.61
2023-04-08T11:30:21.708Z,8.73
2023-04-08T11:31:24.312Z,8.76
2023-04-08T11:32:22.503Z,8.73
2023-04-08T11:33:21.906Z,8.73
2023-04-08T11:34:21.679Z,8.76
2023-04-08T11:35:21.664Z,8.91
2023-04-08T11:36:21.687Z,8.82
2023-04-08T11:37:21.649Z,8.85
2023-04-08T11:38:21.702Z,8.78
2023-04-08T11:39:22.056Z,8.82
2023-04-08T11:40:21.608Z,8.94
2023-04-08T11:41:21.617Z,8.92
2023-04-08T11:42:21.631Z,8.99
2023-04-08T11:43:21.649Z,8.97
2023-04-08T11:44:21.577Z,8.99
2023-04-08T11:45:21.574Z,9.00
2023-04-08T11:46:21.593Z,8.99
2023-04-08T11:47:21.554Z,9.00
2023-04-08T11:48:21.568Z,9.13
2023-04-08T11:49:21.527Z,9.10
2023-04-08T11:50:21.495Z,9.10
2023-04-08T11:51:21.521Z,9.10
2023-04-08T11:52:21.558Z,9.10
2023-04-08T11:53:21.558Z,9.13
2023-04-08T11:54:21.468Z,9.11
2023-04-08T11:55:21.470Z,9.14
2023-04-08T11:56:21.478Z,9.16
2023-04-08T11:57:21.445Z,9.22
2023-04-08T11:58:21.491Z,9.31
2023-04-08T11:59:21.399Z,9.32
2023-04-08T12:00:21.411Z,9.36
2023-04-08T12:01:21.378Z,9.31
2023-04-08T12:02:21.501Z,9.36
2023-04-08T12:03:21.518Z,9.46
2023-04-08T12:04:21.499Z,9.39
2023-04-08T12:05:21.374Z,9.39
2023-04-08T12:06:21.334Z,9.41
2023-04-08T12:07:21.317Z,9.46
2023-04-08T12:08:21.389Z,9.47
2023-04-08T12:09:21.356Z,9.58
2023-04-08T12:10:21.330Z,9.61
2023-04-08T12:11:21.283Z,9.72
2023-04-08T12:12:21.274Z,9.72
2023-04-08T12:13:21.277Z,9.87
2023-04-08T12:14:21.337Z,9.80
2023-04-08T12:15:21.228Z,9.83
2023-04-08T12:16:21.374Z,9.92
2023-04-08T12:17:21.212Z,9.89
2023-04-08T12:18:21.293Z,9.89
2023-04-08T12:19:21.244Z,9.89
2023-04-08T12:20:21.211Z,9.91
2023-04-08T12:21:21.235Z,9.94
2023-04-08T12:22:21.163Z,10.02
2023-04-08T12:23:21.153Z,10.13
2023-04-08T12:24:21.204Z,9.98
2023-04-08T12:25:21.165Z,10.10
2023-04-08T12:26:21.177Z,10.01
2023-04-08T12:27:21.574Z,10.09
2023-04-08T12:28:21.120Z,10.09
2023-04-08T12:29:21.138Z,10.12
2023-04-08T12:30:21.117Z,10.16
2023-04-08T12:31:21.187Z,10.26
2023-04-08T12:32:21.083Z,10.17
2023-04-08T12:33:21.105Z,10.17
2023-04-08T12:34:21.116Z,10.23
2023-04-08T12:35:21.028Z,10.26
2023-04-08T12:36:21.066Z,10.23
2023-04-08T12:37:21.005Z,10.23
2023-04-08T12:38:21.016Z,10.20
2023-04-08T12:39:21.046Z,10.26
2023-04-08T12:40:20.987Z,10.17
2023-04-08T12:41:20.979Z,10.23
2023-04-08T12:42:20.969Z,10.25
2023-04-08T12:43:20.966Z,10.15
2023-04-08T12:44:21.059Z,10.20
2023-04-08T12:45:20.941Z,10.02
2023-04-08T12:46:20.975Z,10.23
2023-04-08T12:47:20.925Z,10.15
2023-04-08T12:48:20.886Z,10.04
2023-04-08T12:49:20.873Z,10.17
2023-04-08T12:50:20.986Z,10.19
2023-04-08T12:51:20.855Z,10.28
2023-04-08T12:52:20.847Z,10.17
2023-04-08T12:53:20.852Z,10.17
2023-04-08T12:54:20.824Z,10.26
2023-04-08T12:55:20.888Z,10.20
2023-04-08T12:56:20.848Z,10.23
2023-04-08T12:57:20.797Z,10.33
2023-04-08T12:58:22.558Z,10.31
2023-04-08T12:59:20.780Z,10.34
2023-04-08T13:00:20.822Z,10.28
2023-04-08T13:01:20.850Z,10.31
2023-04-08T13:02:20.862Z,10.30
2023-04-08T13:03:20.863Z,10.35
2023-04-08T13:04:20.803Z,10.26
2023-04-08T13:05:29.444Z,10.30
2023-04-08T13:06:21.706Z,10.35
2023-04-08T13:07:20.755Z,10.23
2023-04-08T13:08:20.700Z,10.31
2023-04-08T13:09:20.708Z,10.34
2023-04-08T13:10:20.653Z,10.26
2023-04-08T13:11:20.627Z,10.37
2023-04-08T13:12:20.665Z,10.33
2023-04-08T13:13:20.625Z,10.41
2023-04-08T13:14:20.714Z,10.31
2023-04-08T13:15:20.672Z,10.30
2023-04-08T13:16:20.672Z,10.33
2023-04-08T13:17:20.617Z,10.20